sensor_id;sensor_type;location;lat;lon;timestamp;P1;durP1;ratioP1;P2;durP2;ratioP2
2706;SDS011;7819;48.046;7.642;2022-08-21T00:00:21;2.20;;;1.73;;
2706;SDS011;7819;48.046;7.642;2022-08-21T00:02:48;2.50;;;1.60;;
2706;SDS011;7819;48.046;7.642;2022-08-21T00:05:13;1.60;;;1.50;;
2706;SDS011;7819;48.046;7.642;2022-08-21T00:07:39;1.33;;;1.20;;
2706;SDS011;7819;48.046;7.642;2022-08-21T00:10:04;1.67;;;1.33;;
2706;SDS011;7819;48.046;7.642;2022-08-21T00:12:29;2.27;;;1.63;;
2706;SDS011;7819;48.046;7.642;2022-08-21T00:14:56;1.30;;;1.20;;
2706;SDS011;7819;48.046;7.642;2022-08-21T00:17:21;4.27;;;1.50;;
2706;SDS011;7819;48.046;7.642;2022-08-21T00:19:47;2.13;;;1.50;;
2706;SDS011;7819;48.046;7.642;2022-08-21T00:22:12;5.90;;;1.60;;
2706;SDS011;7819;48.046;7.642;2022-08-21T00:24:37;1.70;;;1.60;;
2706;SDS011;7819;48.046;7.642;2022-08-21T00:27:03;1.77;;;1.50;;
2706;SDS011;7819;48.046;7.642;2022-08-21T00:29:28;4.13;;;1.70;;
2706;SDS011;7819;48.046;7.642;2022-08-21T00:31:53;1.30;;;1.10;;
2706;SDS011;7819;48.046;7.642;2022-08-21T00:34:18;3.23;;;1.37;;
2706;SDS011;7819;48.046;7.642;2022-08-21T00:36:43;4.97;;;1.57;;
2706;SDS011;7819;48.046;7.642;2022-08-21T00:39:09;1.93;;;1.63;;
2706;SDS011;7819;48.046;7.642;2022-08-21T00:41:35;2.10;;;1.90;;
2706;SDS011;7819;48.046;7.642;2022-08-21T00:44:00;3.47;;;1.67;;
2706;SDS011;7819;48.046;7.642;2022-08-21T00:46:26;1.53;;;1.40;;
2706;SDS011;7819;48.046;7.642;2022-08-21T00:48:51;2.47;;;1.70;;
2706;SDS011;7819;48.046;7.642;2022-08-21T00:51:17;2.50;;;1.63;;
2706;SDS011;7819;48.046;7.642;2022-08-21T00:53:47;2.23;;;1.80;;
2706;SDS011;7819;48.046;7.642;2022-08-21T00:56:13;2.30;;;1.93;;
2706;SDS011;7819;48.046;7.642;2022-08-21T00:58:39;3.90;;;1.53;;
2706;SDS011;7819;48.046;7.642;2022-08-21T01:01:07;1.87;;;1.30;;
2706;SDS011;7819;48.046;7.642;2022-08-21T01:03:33;4.90;;;1.40;;
2706;SDS011;7819;48.046;7.642;2022-08-21T01:05:58;1.40;;;1.30;;
2706;SDS011;7819;48.046;7.642;2022-08-21T01:08:23;1.70;;;1.50;;
2706;SDS011;7819;48.046;7.642;2022-08-21T01:10:48;3.53;;;1.53;;
2706;SDS011;7819;48.046;7.642;2022-08-21T01:13:15;1.70;;;1.60;;
2706;SDS011;7819;48.046;7.642;2022-08-21T01:15:42;4.10;;;1.43;;
2706;SDS011;7819;48.046;7.642;2022-08-21T01:18:09;2.00;;;1.80;;
2706;SDS011;7819;48.046;7.642;2022-08-21T01:20:36;2.27;;;1.80;;
2706;SDS011;7819;48.046;7.642;2022-08-21T01:23:02;1.90;;;1.50;;
2706;SDS011;7819;48.046;7.642;2022-08-21T01:25:28;2.70;;;1.60;;
2706;SDS011;7819;48.046;7.642;2022-08-21T01:27:53;1.80;;;1.40;;
2706;SDS011;7819;48.046;7.642;2022-08-21T01:30:23;1.90;;;1.23;;
2706;SDS011;7819;48.046;7.642;2022-08-21T01:32:49;1.40;;;1.30;;
2706;SDS011;7819;48.046;7.642;2022-08-21T01:35:15;1.50;;;1.37;;
2706;SDS011;7819;48.046;7.642;2022-08-21T01:37:41;2.00;;;1.40;;
2706;SDS011;7819;48.046;7.642;2022-08-21T01:40:07;2.00;;;1.30;;
2706;SDS011;7819;48.046;7.642;2022-08-21T01:42:33;1.37;;;1.20;;
2706;SDS011;7819;48.046;7.642;2022-08-21T01:44:58;1.80;;;1.27;;
2706;SDS011;7819;48.046;7.642;2022-08-21T01:47:23;1.80;;;1.40;;
2706;SDS011;7819;48.046;7.642;2022-08-21T01:49:48;2.47;;;1.50;;
2706;SDS011;7819;48.046;7.642;2022-08-21T01:52:14;2.83;;;1.50;;
2706;SDS011;7819;48.046;7.642;2022-08-21T01:54:39;1.73;;;1.63;;
2706;SDS011;7819;48.046;7.642;2022-08-21T01:57:04;2.40;;;1.77;;
2706;SDS011;7819;48.046;7.642;2022-08-21T01:59:29;1.30;;;1.20;;
2706;SDS011;7819;48.046;7.642;2022-08-21T02:01:55;2.37;;;1.47;;
2706;SDS011;7819;48.046;7.642;2022-08-21T02:04:20;1.60;;;1.50;;
2706;SDS011;7819;48.046;7.642;2022-08-21T02:06:46;1.97;;;1.77;;
2706;SDS011;7819;48.046;7.642;2022-08-21T02:09:11;1.80;;;1.67;;
2706;SDS011;7819;48.046;7.642;2022-08-21T02:11:37;3.90;;;1.83;;
2706;SDS011;7819;48.046;7.642;2022-08-21T02:14:05;1.83;;;1.70;;
2706;SDS011;7819;48.046;7.642;2022-08-21T02:16:30;12.63;;;2.40;;
2706;SDS011;7819;48.046;7.642;2022-08-21T02:18:55;1.80;;;1.50;;
2706;SDS011;7819;48.046;7.642;2022-08-21T02:21:21;1.70;;;1.50;;
2706;SDS011;7819;48.046;7.642;2022-08-21T02:23:46;1.50;;;1.33;;
2706;SDS011;7819;48.046;7.642;2022-08-21T02:26:11;4.13;;;1.50;;
2706;SDS011;7819;48.046;7.642;2022-08-21T02:28:37;2.57;;;2.37;;
2706;SDS011;7819;48.046;7.642;2022-08-21T02:31:03;2.17;;;1.10;;
2706;SDS011;7819;48.046;7.642;2022-08-21T02:33:29;2.90;;;1.67;;
2706;SDS011;7819;48.046;7.642;2022-08-21T02:35:54;1.60;;;1.40;;
2706;SDS011;7819;48.046;7.642;2022-08-21T02:38:21;2.20;;;1.53;;
2706;SDS011;7819;48.046;7.642;2022-08-21T02:40:47;4.67;;;1.40;;
2706;SDS011;7819;48.046;7.642;2022-08-21T02:43:12;2.50;;;1.47;;
2706;SDS011;7819;48.046;7.642;2022-08-21T02:45:39;1.53;;;1.20;;
2706;SDS011;7819;48.046;7.642;2022-08-21T02:48:06;1.70;;;1.53;;
2706;SDS011;7819;48.046;7.642;2022-08-21T02:50:33;2.03;;;1.33;;
2706;SDS011;7819;48.046;7.642;2022-08-21T02:52:59;2.23;;;1.80;;
2706;SDS011;7819;48.046;7.642;2022-08-21T02:55:26;2.07;;;1.90;;
2706;SDS011;7819;48.046;7.642;2022-08-21T02:57:52;2.40;;;1.90;;
2706;SDS011;7819;48.046;7.642;2022-08-21T03:00:18;2.97;;;1.63;;
2706;SDS011;7819;48.046;7.642;2022-08-21T03:02:44;1.57;;;1.47;;
2706;SDS011;7819;48.046;7.642;2022-08-21T03:05:11;2.93;;;1.67;;
2706;SDS011;7819;48.046;7.642;2022-08-21T03:07:37;2.70;;;2.10;;
2706;SDS011;7819;48.046;7.642;2022-08-21T03:10:03;2.90;;;2.00;;
2706;SDS011;7819;48.046;7.642;2022-08-21T03:12:28;3.07;;;2.00;;
2706;SDS011;7819;48.046;7.642;2022-08-21T03:14:53;2.40;;;1.60;;
2706;SDS011;7819;48.046;7.642;2022-08-21T03:17:18;3.70;;;1.80;;
2706;SDS011;7819;48.046;7.642;2022-08-21T03:19:44;3.60;;;1.90;;
2706;SDS011;7819;48.046;7.642;2022-08-21T03:22:09;2.23;;;1.50;;
2706;SDS011;7819;48.046;7.642;2022-08-21T03:24:34;2.60;;;1.70;;
2706;SDS011;7819;48.046;7.642;2022-08-21T03:27:00;3.93;;;1.77;;
2706;SDS011;7819;48.046;7.642;2022-08-21T03:29:25;2.60;;;1.77;;
2706;SDS011;7819;48.046;7.642;2022-08-21T03:31:50;1.97;;;1.20;;
2706;SDS011;7819;48.046;7.642;2022-08-21T03:34:17;3.03;;;1.90;;
2706;SDS011;7819;48.046;7.642;2022-08-21T03:36:42;2.70;;;1.90;;
2706;SDS011;7819;48.046;7.642;2022-08-21T03:39:08;1.50;;;1.20;;
2706;SDS011;7819;48.046;7.642;2022-08-21T03:41:33;1.57;;;1.47;;
2706;SDS011;7819;48.046;7.642;2022-08-21T03:43:58;2.10;;;1.90;;
2706;SDS011;7819;48.046;7.642;2022-08-21T03:46:24;5.30;;;1.70;;
2706;SDS011;7819;48.046;7.642;2022-08-21T03:48:49;3.30;;;1.70;;
2706;SDS011;7819;48.046;7.642;2022-08-21T03:51:14;3.60;;;2.00;;
2706;SDS011;7819;48.046;7.642;2022-08-21T03:53:40;1.93;;;1.60;;
2706;SDS011;7819;48.046;7.642;2022-08-21T03:56:05;2.83;;;1.47;;
2706;SDS011;7819;48.046;7.642;2022-08-21T03:58:30;3.67;;;1.50;;
2706;SDS011;7819;48.046;7.642;2022-08-21T04:00:57;2.10;;;1.73;;
2706;SDS011;7819;48.046;7.642;2022-08-21T04:03:22;1.80;;;1.70;;
2706;SDS011;7819;48.046;7.642;2022-08-21T04:05:47;1.80;;;1.47;;
2706;SDS011;7819;48.046;7.642;2022-08-21T04:08:14;2.83;;;1.60;;
2706;SDS011;7819;48.046;7.642;2022-08-21T04:10:39;2.13;;;1.50;;
2706;SDS011;7819;48.046;7.642;2022-08-21T04:13:05;4.00;;;1.77;;
2706;SDS011;7819;48.046;7.642;2022-08-21T04:15:30;5.80;;;1.73;;
2706;SDS011;7819;48.046;7.642;2022-08-21T04:17:56;2.80;;;1.87;;
2706;SDS011;7819;48.046;7.642;2022-08-21T04:20:21;1.70;;;1.50;;
2706;SDS011;7819;48.046;7.642;2022-08-21T04:22:47;16.60;;;3.87;;
2706;SDS011;7819;48.046;7.642;2022-08-21T04:25:13;2.53;;;1.50;;
2706;SDS011;7819;48.046;7.642;2022-08-21T04:27:38;3.80;;;1.90;;
2706;SDS011;7819;48.046;7.642;2022-08-21T04:30:05;2.53;;;1.83;;
2706;SDS011;7819;48.046;7.642;2022-08-21T04:32:30;2.30;;;1.73;;
2706;SDS011;7819;48.046;7.642;2022-08-21T04:35:03;3.10;;;1.80;;
2706;SDS011;7819;48.046;7.642;2022-08-21T04:37:29;2.13;;;1.93;;
2706;SDS011;7819;48.046;7.642;2022-08-21T04:39:55;3.23;;;2.00;;
2706;SDS011;7819;48.046;7.642;2022-08-21T04:42:22;4.80;;;2.03;;
2706;SDS011;7819;48.046;7.642;2022-08-21T04:44:48;6.80;;;1.80;;
2706;SDS011;7819;48.046;7.642;2022-08-21T04:47:14;2.80;;;1.70;;
2706;SDS011;7819;48.046;7.642;2022-08-21T04:49:39;2.57;;;2.37;;
2706;SDS011;7819;48.046;7.642;2022-08-21T04:52:05;3.67;;;1.70;;
2706;SDS011;7819;48.046;7.642;2022-08-21T04:54:31;5.33;;;2.20;;
2706;SDS011;7819;48.046;7.642;2022-08-21T04:56:58;2.83;;;2.00;;
2706;SDS011;7819;48.046;7.642;2022-08-21T04:59:26;2.40;;;1.80;;
2706;SDS011;7819;48.046;7.642;2022-08-21T05:01:52;2.73;;;2.53;;
2706;SDS011;7819;48.046;7.642;2022-08-21T05:04:21;1.70;;;1.60;;
2706;SDS011;7819;48.046;7.642;2022-08-21T05:06:47;3.27;;;1.60;;
2706;SDS011;7819;48.046;7.642;2022-08-21T05:09:14;2.60;;;2.00;;
2706;SDS011;7819;48.046;7.642;2022-08-21T05:11:40;3.47;;;2.30;;
2706;SDS011;7819;48.046;7.642;2022-08-21T05:14:07;2.53;;;1.50;;
2706;SDS011;7819;48.046;7.642;2022-08-21T05:16:33;2.70;;;1.90;;
2706;SDS011;7819;48.046;7.642;2022-08-21T05:18:58;2.63;;;1.53;;
2706;SDS011;7819;48.046;7.642;2022-08-21T05:21:23;2.97;;;1.90;;
2706;SDS011;7819;48.046;7.642;2022-08-21T05:23:49;4.50;;;1.67;;
2706;SDS011;7819;48.046;7.642;2022-08-21T05:26:14;3.13;;;1.73;;
2706;SDS011;7819;48.046;7.642;2022-08-21T05:28:39;2.17;;;1.97;;
2706;SDS011;7819;48.046;7.642;2022-08-21T05:31:04;1.73;;;1.50;;
2706;SDS011;7819;48.046;7.642;2022-08-21T05:33:29;2.90;;;1.50;;
2706;SDS011;7819;48.046;7.642;2022-08-21T05:35:54;2.60;;;2.13;;
2706;SDS011;7819;48.046;7.642;2022-08-21T05:38:21;3.33;;;2.07;;
2706;SDS011;7819;48.046;7.642;2022-08-21T05:40:46;3.57;;;1.83;;
2706;SDS011;7819;48.046;7.642;2022-08-21T05:43:11;2.33;;;2.13;;
2706;SDS011;7819;48.046;7.642;2022-08-21T05:45:36;1.87;;;1.63;;
2706;SDS011;7819;48.046;7.642;2022-08-21T05:48:08;8.10;;;1.97;;
2706;SDS011;7819;48.046;7.642;2022-08-21T05:50:34;2.23;;;2.03;;
2706;SDS011;7819;48.046;7.642;2022-08-21T05:52:59;2.03;;;1.83;;
2706;SDS011;7819;48.046;7.642;2022-08-21T05:55:24;2.60;;;1.60;;
2706;SDS011;7819;48.046;7.642;2022-08-21T05:57:50;6.20;;;2.07;;
2706;SDS011;7819;48.046;7.642;2022-08-21T06:00:15;2.40;;;1.77;;
2706;SDS011;7819;48.046;7.642;2022-08-21T06:02:41;1.77;;;1.50;;
2706;SDS011;7819;48.046;7.642;2022-08-21T06:05:06;1.57;;;1.47;;
2706;SDS011;7819;48.046;7.642;2022-08-21T06:07:32;3.40;;;1.90;;
2706;SDS011;7819;48.046;7.642;2022-08-21T06:09:57;1.90;;;1.70;;
2706;SDS011;7819;48.046;7.642;2022-08-21T06:12:22;2.80;;;1.80;;
2706;SDS011;7819;48.046;7.642;2022-08-21T06:14:47;4.40;;;2.20;;
2706;SDS011;7819;48.046;7.642;2022-08-21T06:17:13;3.20;;;2.00;;
2706;SDS011;7819;48.046;7.642;2022-08-21T06:19:39;1.70;;;1.60;;
2706;SDS011;7819;48.046;7.642;2022-08-21T06:22:05;2.50;;;1.90;;
2706;SDS011;7819;48.046;7.642;2022-08-21T06:24:30;2.80;;;2.10;;
2706;SDS011;7819;48.046;7.642;2022-08-21T06:26:56;2.50;;;2.30;;
2706;SDS011;7819;48.046;7.642;2022-08-21T06:29:21;1.90;;;1.47;;
2706;SDS011;7819;48.046;7.642;2022-08-21T06:31:48;2.00;;;1.80;;
2706;SDS011;7819;48.046;7.642;2022-08-21T06:34:13;2.23;;;1.70;;
2706;SDS011;7819;48.046;7.642;2022-08-21T06:36:39;4.13;;;2.10;;
2706;SDS011;7819;48.046;7.642;2022-08-21T06:39:04;2.30;;;1.70;;
2706;SDS011;7819;48.046;7.642;2022-08-21T06:41:29;2.70;;;2.00;;
2706;SDS011;7819;48.046;7.642;2022-08-21T06:43:55;2.60;;;1.90;;
2706;SDS011;7819;48.046;7.642;2022-08-21T06:46:20;2.23;;;1.67;;
2706;SDS011;7819;48.046;7.642;2022-08-21T06:48:46;2.90;;;1.60;;
2706;SDS011;7819;48.046;7.642;2022-08-21T06:51:11;2.77;;;2.00;;
2706;SDS011;7819;48.046;7.642;2022-08-21T06:53:36;2.13;;;1.80;;
2706;SDS011;7819;48.046;7.642;2022-08-21T06:56:02;2.33;;;2.10;;
2706;SDS011;7819;48.046;7.642;2022-08-21T06:58:27;3.90;;;2.10;;
2706;SDS011;7819;48.046;7.642;2022-08-21T07:00:52;3.97;;;1.87;;
2706;SDS011;7819;48.046;7.642;2022-08-21T07:05:43;2.50;;;1.77;;
2706;SDS011;7819;48.046;7.642;2022-08-21T07:08:08;2.17;;;1.97;;
2706;SDS011;7819;48.046;7.642;2022-08-21T07:10:33;2.50;;;1.93;;
2706;SDS011;7819;48.046;7.642;2022-08-21T07:12:58;2.50;;;2.03;;
2706;SDS011;7819;48.046;7.642;2022-08-21T07:15:23;5.33;;;2.40;;
2706;SDS011;7819;48.046;7.642;2022-08-21T07:17:48;2.90;;;2.43;;
2706;SDS011;7819;48.046;7.642;2022-08-21T07:20:14;3.37;;;2.70;;
2706;SDS011;7819;48.046;7.642;2022-08-21T07:22:39;3.43;;;3.13;;
2706;SDS011;7819;48.046;7.642;2022-08-21T07:25:05;3.23;;;2.93;;
2706;SDS011;7819;48.046;7.642;2022-08-21T07:27:30;4.37;;;2.97;;
2706;SDS011;7819;48.046;7.642;2022-08-21T07:29:56;4.00;;;2.80;;
2706;SDS011;7819;48.046;7.642;2022-08-21T07:32:21;4.00;;;2.80;;
2706;SDS011;7819;48.046;7.642;2022-08-21T07:34:46;4.17;;;2.20;;
2706;SDS011;7819;48.046;7.642;2022-08-21T07:37:11;3.07;;;2.00;;
2706;SDS011;7819;48.046;7.642;2022-08-21T07:39:37;5.87;;;2.90;;
2706;SDS011;7819;48.046;7.642;2022-08-21T07:42:02;2.40;;;2.20;;
2706;SDS011;7819;48.046;7.642;2022-08-21T07:44:28;3.40;;;2.50;;
2706;SDS011;7819;48.046;7.642;2022-08-21T07:46:53;5.33;;;2.90;;
2706;SDS011;7819;48.046;7.642;2022-08-21T07:49:18;3.87;;;2.83;;
2706;SDS011;7819;48.046;7.642;2022-08-21T07:51:43;3.23;;;2.93;;
2706;SDS011;7819;48.046;7.642;2022-08-21T07:54:08;6.40;;;3.20;;
2706;SDS011;7819;48.046;7.642;2022-08-21T07:56:34;3.30;;;3.00;;
2706;SDS011;7819;48.046;7.642;2022-08-21T07:58:59;4.83;;;2.37;;
2706;SDS011;7819;48.046;7.642;2022-08-21T08:01:24;3.20;;;2.23;;
2706;SDS011;7819;48.046;7.642;2022-08-21T08:03:50;3.10;;;2.50;;
2706;SDS011;7819;48.046;7.642;2022-08-21T08:06:15;4.20;;;3.17;;
2706;SDS011;7819;48.046;7.642;2022-08-21T08:08:44;4.50;;;2.47;;
2706;SDS011;7819;48.046;7.642;2022-08-21T08:11:09;4.63;;;2.40;;
2706;SDS011;7819;48.046;7.642;2022-08-21T08:13:46;3.30;;;2.50;;
2706;SDS011;7819;48.046;7.642;2022-08-21T08:16:12;2.90;;;1.80;;
2706;SDS011;7819;48.046;7.642;2022-08-21T08:18:37;3.90;;;2.53;;
2706;SDS011;7819;48.046;7.642;2022-08-21T08:21:03;5.53;;;2.70;;
2706;SDS011;7819;48.046;7.642;2022-08-21T08:23:29;2.53;;;2.07;;
2706;SDS011;7819;48.046;7.642;2022-08-21T08:25:55;4.00;;;2.33;;
2706;SDS011;7819;48.046;7.642;2022-08-21T08:28:20;2.80;;;2.23;;
2706;SDS011;7819;48.046;7.642;2022-08-21T08:30:46;2.90;;;2.60;;
2706;SDS011;7819;48.046;7.642;2022-08-21T08:33:12;3.70;;;2.40;;
2706;SDS011;7819;48.046;7.642;2022-08-21T08:35:37;3.00;;;2.00;;
2706;SDS011;7819;48.046;7.642;2022-08-21T08:38:02;6.70;;;2.33;;
2706;SDS011;7819;48.046;7.642;2022-08-21T08:40:31;6.77;;;2.67;;
2706;SDS011;7819;48.046;7.642;2022-08-21T08:42:59;2.23;;;2.00;;
2706;SDS011;7819;48.046;7.642;2022-08-21T08:45:24;3.43;;;2.30;;
2706;SDS011;7819;48.046;7.642;2022-08-21T08:48:01;2.40;;;1.90;;
2706;SDS011;7819;48.046;7.642;2022-08-21T08:53:06;3.63;;;3.30;;
2706;SDS011;7819;48.046;7.642;2022-08-21T08:55:35;2.23;;;2.03;;
2706;SDS011;7819;48.046;7.642;2022-08-21T08:58:00;3.60;;;1.97;;
2706;SDS011;7819;48.046;7.642;2022-08-21T09:00:27;2.60;;;2.37;;
2706;SDS011;7819;48.046;7.642;2022-08-21T09:02:57;4.37;;;2.23;;
2706;SDS011;7819;48.046;7.642;2022-08-21T09:18:52;1.90;;;1.63;;
2706;SDS011;7819;48.046;7.642;2022-08-21T09:24:00;4.88;;;2.53;;
2706;SDS011;7819;48.046;7.642;2022-08-21T09:26:28;3.00;;;2.40;;
2706;SDS011;7819;48.046;7.642;2022-08-21T09:28:56;3.00;;;2.10;;
2706;SDS011;7819;48.046;7.642;2022-08-21T09:31:30;2.33;;;2.07;;
2706;SDS011;7819;48.046;7.642;2022-08-21T09:36:24;2.63;;;1.90;;
2706;SDS011;7819;48.046;7.642;2022-08-21T09:38:54;2.40;;;2.17;;
2706;SDS011;7819;48.046;7.642;2022-08-21T09:41:27;3.27;;;2.37;;
2706;SDS011;7819;48.046;7.642;2022-08-21T09:43:53;2.63;;;2.10;;
2706;SDS011;7819;48.046;7.642;2022-08-21T09:46:22;2.10;;;1.90;;
2706;SDS011;7819;48.046;7.642;2022-08-21T09:48:49;5.40;;;2.50;;
2706;SDS011;7819;48.046;7.642;2022-08-21T09:51:19;5.33;;;2.53;;
2706;SDS011;7819;48.046;7.642;2022-08-21T09:53:49;2.43;;;1.77;;
2706;SDS011;7819;48.046;7.642;2022-08-21T09:56:19;4.80;;;2.27;;
2706;SDS011;7819;48.046;7.642;2022-08-21T09:59:12;1.90;;;1.53;;
2706;SDS011;7819;48.046;7.642;2022-08-21T10:01:41;3.80;;;2.00;;
2706;SDS011;7819;48.046;7.642;2022-08-21T10:04:07;2.93;;;2.17;;
2706;SDS011;7819;48.046;7.642;2022-08-21T10:06:32;3.00;;;1.97;;
2706;SDS011;7819;48.046;7.642;2022-08-21T10:09:07;2.37;;;2.03;;
2706;SDS011;7819;48.046;7.642;2022-08-21T10:11:33;3.53;;;2.20;;
2706;SDS011;7819;48.046;7.642;2022-08-21T10:22:04;4.20;;;2.10;;
2706;SDS011;7819;48.046;7.642;2022-08-21T10:24:44;2.80;;;1.83;;
2706;SDS011;7819;48.046;7.642;2022-08-21T10:32:21;3.23;;;1.53;;
2706;SDS011;7819;48.046;7.642;2022-08-21T10:35:10;2.90;;;1.73;;
2706;SDS011;7819;48.046;7.642;2022-08-21T10:37:44;3.00;;;1.80;;
2706;SDS011;7819;48.046;7.642;2022-08-21T10:45:25;3.80;;;1.80;;
2706;SDS011;7819;48.046;7.642;2022-08-21T10:47:53;3.70;;;1.90;;
2706;SDS011;7819;48.046;7.642;2022-08-21T10:55:40;2.97;;;2.00;;
2706;SDS011;7819;48.046;7.642;2022-08-21T10:58:25;2.33;;;1.67;;
2706;SDS011;7819;48.046;7.642;2022-08-21T11:00:54;2.40;;;2.00;;
2706;SDS011;7819;48.046;7.642;2022-08-21T11:03:35;4.27;;;1.97;;
2706;SDS011;7819;48.046;7.642;2022-08-21T11:06:14;3.83;;;2.40;;
2706;SDS011;7819;48.046;7.642;2022-08-21T11:08:41;4.37;;;2.33;;
2706;SDS011;7819;48.046;7.642;2022-08-21T11:13:54;2.87;;;2.00;;
2706;SDS011;7819;48.046;7.642;2022-08-21T11:16:32;4.53;;;2.00;;
2706;SDS011;7819;48.046;7.642;2022-08-21T11:23:57;2.93;;;1.83;;
2706;SDS011;7819;48.046;7.642;2022-08-21T11:26:36;3.23;;;1.60;;
2706;SDS011;7819;48.046;7.642;2022-08-21T11:29:07;4.57;;;2.10;;
2706;SDS011;7819;48.046;7.642;2022-08-21T11:31:42;3.70;;;1.30;;
2706;SDS011;7819;48.046;7.642;2022-08-21T11:36:37;2.40;;;1.63;;
2706;SDS011;7819;48.046;7.642;2022-08-21T11:41:54;1.73;;;1.47;;
2706;SDS011;7819;48.046;7.642;2022-08-21T11:46:59;3.90;;;2.00;;
2706;SDS011;7819;48.046;7.642;2022-08-21T11:52:13;2.87;;;1.60;;
2706;SDS011;7819;48.046;7.642;2022-08-21T11:54:42;1.90;;;1.63;;
2706;SDS011;7819;48.046;7.642;2022-08-21T11:57:17;2.37;;;1.63;;
2706;SDS011;7819;48.046;7.642;2022-08-21T12:00:29;1.83;;;1.27;;
2706;SDS011;7819;48.046;7.642;2022-08-21T12:02:35;2.50;;;1.73;;
2706;SDS011;7819;48.046;7.642;2022-08-21T12:05:04;2.40;;;1.53;;
2706;SDS011;7819;48.046;7.642;2022-08-21T12:07:42;3.97;;;1.43;;
2706;SDS011;7819;48.046;7.642;2022-08-21T12:10:09;2.77;;;1.40;;
2706;SDS011;7819;48.046;7.642;2022-08-21T12:12:36;1.73;;;1.43;;
2706;SDS011;7819;48.046;7.642;2022-08-21T12:15:44;1.70;;;1.30;;
2706;SDS011;7819;48.046;7.642;2022-08-21T12:17:55;2.10;;;1.20;;
2706;SDS011;7819;48.046;7.642;2022-08-21T12:22:54;2.53;;;1.27;;
2706;SDS011;7819;48.046;7.642;2022-08-21T12:25:20;2.00;;;1.33;;
2706;SDS011;7819;48.046;7.642;2022-08-21T12:27:50;2.43;;;1.33;;
2706;SDS011;7819;48.046;7.642;2022-08-21T12:30:58;2.20;;;1.00;;
2706;SDS011;7819;48.046;7.642;2022-08-21T12:33:06;1.63;;;1.30;;
2706;SDS011;7819;48.046;7.642;2022-08-21T12:35:41;1.10;;;1.00;;
2706;SDS011;7819;48.046;7.642;2022-08-21T12:38:21;3.20;;;1.70;;
2706;SDS011;7819;48.046;7.642;2022-08-21T12:40:54;2.43;;;1.27;;
2706;SDS011;7819;48.046;7.642;2022-08-21T12:43:25;2.47;;;1.33;;
2706;SDS011;7819;48.046;7.642;2022-08-21T12:45:52;2.53;;;1.37;;
2706;SDS011;7819;48.046;7.642;2022-08-21T12:48:20;1.70;;;1.20;;
2706;SDS011;7819;48.046;7.642;2022-08-21T12:50:50;3.70;;;1.20;;
2706;SDS011;7819;48.046;7.642;2022-08-21T12:55:57;1.30;;;1.10;;
2706;SDS011;7819;48.046;7.642;2022-08-21T12:58:27;1.87;;;1.07;;
2706;SDS011;7819;48.046;7.642;2022-08-21T13:01:03;2.17;;;1.20;;
2706;SDS011;7819;48.046;7.642;2022-08-21T13:03:28;1.50;;;1.00;;
2706;SDS011;7819;48.046;7.642;2022-08-21T13:05:54;1.40;;;1.20;;
2706;SDS011;7819;48.046;7.642;2022-08-21T13:08:20;1.23;;;0.90;;
2706;SDS011;7819;48.046;7.642;2022-08-21T13:10:45;1.30;;;0.80;;
2706;SDS011;7819;48.046;7.642;2022-08-21T13:13:15;1.93;;;0.90;;
2706;SDS011;7819;48.046;7.642;2022-08-21T13:15:42;3.90;;;1.03;;
2706;SDS011;7819;48.046;7.642;2022-08-21T13:18:07;1.97;;;0.90;;
2706;SDS011;7819;48.046;7.642;2022-08-21T13:20:36;2.20;;;1.30;;
2706;SDS011;7819;48.046;7.642;2022-08-21T13:23:05;1.80;;;1.20;;
2706;SDS011;7819;48.046;7.642;2022-08-21T13:25:34;1.60;;;1.00;;
2706;SDS011;7819;48.046;7.642;2022-08-21T13:28:07;1.57;;;1.03;;
2706;SDS011;7819;48.046;7.642;2022-08-21T13:30:33;2.63;;;1.17;;
2706;SDS011;7819;48.046;7.642;2022-08-21T13:33:00;1.40;;;1.00;;
2706;SDS011;7819;48.046;7.642;2022-08-21T13:35:28;2.83;;;1.03;;
2706;SDS011;7819;48.046;7.642;2022-08-21T13:37:53;2.20;;;1.03;;
2706;SDS011;7819;48.046;7.642;2022-08-21T13:40:20;1.30;;;1.00;;
2706;SDS011;7819;48.046;7.642;2022-08-21T13:42:48;1.83;;;1.10;;
2706;SDS011;7819;48.046;7.642;2022-08-21T13:45:15;1.67;;;1.10;;
2706;SDS011;7819;48.046;7.642;2022-08-21T13:47:40;1.93;;;1.00;;
2706;SDS011;7819;48.046;7.642;2022-08-21T13:50:06;1.77;;;1.20;;
2706;SDS011;7819;48.046;7.642;2022-08-21T13:52:32;3.83;;;1.60;;
2706;SDS011;7819;48.046;7.642;2022-08-21T13:54:59;2.67;;;1.80;;
2706;SDS011;7819;48.046;7.642;2022-08-21T13:57:27;3.57;;;1.63;;
2706;SDS011;7819;48.046;7.642;2022-08-21T13:59:53;1.80;;;1.47;;
2706;SDS011;7819;48.046;7.642;2022-08-21T14:02:37;1.50;;;0.97;;
2706;SDS011;7819;48.046;7.642;2022-08-21T14:05:02;3.23;;;0.90;;
2706;SDS011;7819;48.046;7.642;2022-08-21T14:09:53;1.73;;;1.20;;
2706;SDS011;7819;48.046;7.642;2022-08-21T14:12:24;1.87;;;1.17;;
2706;SDS011;7819;48.046;7.642;2022-08-21T14:14:49;2.70;;;1.30;;
2706;SDS011;7819;48.046;7.642;2022-08-21T14:17:26;3.03;;;1.20;;
2706;SDS011;7819;48.046;7.642;2022-08-21T14:19:52;1.80;;;1.03;;
2706;SDS011;7819;48.046;7.642;2022-08-21T14:22:36;2.20;;;1.23;;
2706;SDS011;7819;48.046;7.642;2022-08-21T14:25:04;1.47;;;0.97;;
2706;SDS011;7819;48.046;7.642;2022-08-21T14:27:31;1.43;;;0.93;;
2706;SDS011;7819;48.046;7.642;2022-08-21T14:29:58;1.10;;;0.97;;
2706;SDS011;7819;48.046;7.642;2022-08-21T14:32:24;1.27;;;0.83;;
2706;SDS011;7819;48.046;7.642;2022-08-21T14:34:52;2.43;;;1.40;;
2706;SDS011;7819;48.046;7.642;2022-08-21T14:37:17;1.57;;;0.97;;
2706;SDS011;7819;48.046;7.642;2022-08-21T14:39:42;2.23;;;0.80;;
2706;SDS011;7819;48.046;7.642;2022-08-21T14:42:07;2.27;;;1.30;;
2706;SDS011;7819;48.046;7.642;2022-08-21T14:44:33;1.87;;;1.43;;
2706;SDS011;7819;48.046;7.642;2022-08-21T14:46:58;1.77;;;0.90;;
2706;SDS011;7819;48.046;7.642;2022-08-21T14:49:24;2.07;;;0.90;;
2706;SDS011;7819;48.046;7.642;2022-08-21T14:51:51;2.27;;;1.10;;
2706;SDS011;7819;48.046;7.642;2022-08-21T14:54:21;1.90;;;0.90;;
2706;SDS011;7819;48.046;7.642;2022-08-21T14:56:46;1.23;;;0.70;;
2706;SDS011;7819;48.046;7.642;2022-08-21T14:59:12;1.70;;;0.90;;
2706;SDS011;7819;48.046;7.642;2022-08-21T15:01:37;1.43;;;0.97;;
2706;SDS011;7819;48.046;7.642;2022-08-21T15:04:03;1.13;;;0.83;;
2706;SDS011;7819;48.046;7.642;2022-08-21T15:06:28;1.50;;;0.80;;
2706;SDS011;7819;48.046;7.642;2022-08-21T15:08:53;2.10;;;1.00;;
2706;SDS011;7819;48.046;7.642;2022-08-21T15:11:20;1.37;;;0.90;;
2706;SDS011;7819;48.046;7.642;2022-08-21T15:13:46;2.60;;;0.93;;
2706;SDS011;7819;48.046;7.642;2022-08-21T15:16:11;1.27;;;1.10;;
2706;SDS011;7819;48.046;7.642;2022-08-21T15:18:37;1.70;;;1.10;;
2706;SDS011;7819;48.046;7.642;2022-08-21T15:21:02;1.10;;;0.80;;
2706;SDS011;7819;48.046;7.642;2022-08-21T15:23:27;1.80;;;1.20;;
2706;SDS011;7819;48.046;7.642;2022-08-21T15:25:53;1.20;;;0.80;;
2706;SDS011;7819;48.046;7.642;2022-08-21T15:28:19;1.73;;;1.10;;
2706;SDS011;7819;48.046;7.642;2022-08-21T15:30:45;1.20;;;0.90;;
2706;SDS011;7819;48.046;7.642;2022-08-21T15:33:10;2.30;;;1.10;;
2706;SDS011;7819;48.046;7.642;2022-08-21T15:35:36;3.17;;;0.80;;
2706;SDS011;7819;48.046;7.642;2022-08-21T15:38:01;2.10;;;0.77;;
2706;SDS011;7819;48.046;7.642;2022-08-21T15:40:26;1.10;;;0.90;;
2706;SDS011;7819;48.046;7.642;2022-08-21T15:42:52;1.57;;;0.90;;
2706;SDS011;7819;48.046;7.642;2022-08-21T15:45:20;1.50;;;1.03;;
2706;SDS011;7819;48.046;7.642;2022-08-21T15:47:45;2.20;;;0.93;;
2706;SDS011;7819;48.046;7.642;2022-08-21T15:50:11;1.97;;;0.80;;
2706;SDS011;7819;48.046;7.642;2022-08-21T15:52:36;1.97;;;1.30;;
2706;SDS011;7819;48.046;7.642;2022-08-21T15:55:02;1.20;;;0.70;;
2706;SDS011;7819;48.046;7.642;2022-08-21T15:57:27;1.87;;;1.07;;
2706;SDS011;7819;48.046;7.642;2022-08-21T15:59:53;1.77;;;0.70;;
2706;SDS011;7819;48.046;7.642;2022-08-21T16:02:23;1.53;;;1.10;;
2706;SDS011;7819;48.046;7.642;2022-08-21T16:04:49;1.80;;;1.07;;
2706;SDS011;7819;48.046;7.642;2022-08-21T16:07:14;1.47;;;0.80;;
2706;SDS011;7819;48.046;7.642;2022-08-21T16:09:40;4.13;;;1.00;;
2706;SDS011;7819;48.046;7.642;2022-08-21T16:12:06;1.57;;;1.13;;
2706;SDS011;7819;48.046;7.642;2022-08-21T16:14:31;1.50;;;1.07;;
2706;SDS011;7819;48.046;7.642;2022-08-21T16:16:59;1.33;;;1.13;;
2706;SDS011;7819;48.046;7.642;2022-08-21T16:19:25;1.20;;;0.80;;
2706;SDS011;7819;48.046;7.642;2022-08-21T16:21:51;2.13;;;1.37;;
2706;SDS011;7819;48.046;7.642;2022-08-21T16:24:16;3.03;;;1.13;;
2706;SDS011;7819;48.046;7.642;2022-08-21T16:26:41;1.43;;;1.20;;